Time;durP1;ratioP1;P1;durP2;ratioP2;P2;SDS_P1;SDS_P2;PMS_P1;PMS_P2;Temp;Humidity;BMP_temperature;BMP_pressure;BME280_temperature;BME280_humidity;BME280_pressure;Samples;Min_cycle;Max_cycle;Signal;HPM_P1;HPM_P2
2021/06/19 00:02:24;;;;;;;9.00;8.40;;;;;;;23.34;88.42;100077.19;5052713;28;20218;-71
2021/06/19 00:04:50;;;;;;;9.03;8.43;;;;;;;23.35;87.95;100062.03;5052762;28;20224;-71
2021/06/19 00:07:15;;;;;;;9.60;8.90;;;;;;;23.30;87.97;100073.63;5052259;28;20299;-71
2021/06/19 00:09:41;;;;;;;10.30;9.50;;;;;;;23.13;88.66;100064.13;5052367;28;20282;-71
2021/06/19 00:12:07;;;;;;;9.53;8.93;;;;;;;22.94;89.38;100054.28;5052477;28;20172;-71
2021/06/19 00:14:33;;;;;;;10.07;9.27;;;;;;;22.72;90.53;100072.25;5052137;28;20240;-72
2021/06/19 00:16:59;;;;;;;8.87;8.27;;;;;;;22.56;91.39;100073.47;5034357;28;20175;-71
2021/06/19 00:19:24;;;;;;;9.77;9.07;;;;;;;22.46;91.88;100071.53;5052503;28;20174;-71
2021/06/19 00:21:50;;;;;;;9.67;8.97;;;;;;;22.40;92.29;100086.22;5067581;28;20629;-71
2021/06/19 00:24:19;;;;;;;9.13;8.53;;;;;;;22.34;92.68;100080.28;5052338;28;20163;-71
2021/06/19 00:26:46;;;;;;;9.43;8.73;;;;;;;22.29;93.03;100085.47;5051990;28;20171;-71
2021/06/19 00:29:13;;;;;;;9.03;8.43;;;;;;;22.24;93.33;100100.56;5052130;28;20289;-71
2021/06/19 00:31:38;;;;;;;9.60;8.80;;;;;;;22.18;93.75;100100.19;5052218;28;20686;-71
2021/06/19 00:34:03;;;;;;;9.13;8.53;;;;;;;22.17;93.58;100093.03;5051937;28;20254;-71
2021/06/19 00:36:29;;;;;;;10.37;9.60;;;;;;;22.13;93.29;100097.81;5051990;28;20264;-71
2021/06/19 00:38:54;;;;;;;9.93;9.23;;;;;;;22.13;93.14;100100.59;5051407;28;20217;-71
2021/06/19 00:41:19;;;;;;;9.67;8.87;;;;;;;22.16;93.98;100099.78;5051739;28;20230;-71
2021/06/19 00:43:45;;;;;;;10.93;10.00;;;;;;;22.19;93.68;100103.75;5052013;28;20201;-71
2021/06/19 00:46:10;;;;;;;10.10;9.40;;;;;;;22.26;93.32;100101.75;5051886;28;20168;-71
2021/06/19 00:48:36;;;;;;;11.27;10.27;;;;;;;22.30;93.08;100100.97;5051729;28;20537;-71
2021/06/19 00:51:01;;;;;;;10.80;9.90;;;;;;;22.23;93.39;100094.22;5051811;28;20208;-71
2021/06/19 00:53:26;;;;;;;10.93;9.90;;;;;;;22.19;93.22;100101.78;5051510;28;20167;-71
2021/06/19 00:55:52;;;;;;;10.20;9.20;;;;;;;22.07;93.86;100104.16;5051660;28;20181;-71
2021/06/19 00:58:17;;;;;;;9.97;9.27;;;;;;;21.98;94.45;100105.31;5066816;28;20180;-71
2021/06/19 01:00:43;;;;;;;11.30;10.40;;;;;;;22.05;94.24;100112.09;5051432;28;20190;-71
2021/06/19 01:03:08;;;;;;;9.83;9.17;;;;;;;22.13;93.82;100113.69;5051797;28;20254;-71
2021/06/19 01:05:33;;;;;;;11.27;10.47;;;;;;;22.24;92.76;100114.50;5051374;28;20164;-71
2021/06/19 01:07:59;;;;;;;10.50;9.60;;;;;;;22.28;92.29;100115.31;5051585;28;20685;-71
2021/06/19 01:10:27;;;;;;;8.83;8.20;;;;;;;22.23;92.27;100115.69;5051434;28;20204;-71
2021/06/19 01:12:53;;;;;;;10.40;9.70;;;;;;;22.22;92.54;100122.44;5051217;28;20171;-71
2021/06/19 01:15:18;;;;;;;9.53;8.93;;;;;;;22.17;92.97;100125.63;5051329;28;20183;-71
2021/06/19 01:17:44;;;;;;;11.33;10.33;;;;;;;22.22;92.79;100114.09;5051223;28;20258;-71
2021/06/19 01:20:13;;;;;;;10.10;9.30;;;;;;;22.27;92.75;100122.03;5051370;28;20210;-71
2021/06/19 01:22:42;;;;;;;11.30;10.50;;;;;;;22.26;93.10;100117.66;5051298;28;20171;-71
2021/06/19 01:25:10;;;;;;;11.80;10.90;;;;;;;22.22;93.11;100112.09;5051463;28;20266;-71
2021/06/19 01:27:37;;;;;;;10.83;9.83;;;;;;;22.17;93.48;100120.06;5051152;28;20182;-71
2021/06/19 01:30:06;;;;;;;10.10;9.40;;;;;;;22.08;93.78;100108.53;5066473;28;20225;-71
2021/06/19 01:32:34;;;;;;;9.03;8.43;;;;;;;22.06;93.87;100117.28;5050924;28;20189;-71
2021/06/19 01:35:00;;;;;;;10.67;9.87;;;;;;;22.14;93.11;100120.88;5051085;28;20176;-71
2021/06/19 01:37:27;;;;;;;9.50;8.80;;;;;;;22.26;91.48;100128.78;5051006;28;20180;-71
2021/06/19 01:40:03;;;;;;;8.57;7.93;;;;;;;22.47;89.64;100126.00;5050967;28;20179;-71
2021/06/19 01:42:28;;;;;;;8.53;8.00;;;;;;;22.53;88.45;100134.75;5051001;28;20172;-71
2021/06/19 01:44:53;;;;;;;9.10;8.40;;;;;;;22.90;85.78;100130.72;5051001;28;20587;-71
2021/06/19 01:47:19;;;;;;;8.23;7.73;;;;;;;23.13;84.35;100129.03;5051100;28;20258;-71
2021/06/19 01:49:44;;;;;;;7.53;7.03;;;;;;;23.26;83.51;100126.59;5050906;28;20629;-71
2021/06/19 01:52:09;;;;;;;8.47;7.73;;;;;;;23.37;82.74;100129.34;5053733;28;20523;-71
2021/06/19 01:54:39;;;;;;;8.57;7.97;;;;;;;23.48;81.74;100130.06;5054991;28;20185;-71
2021/06/19 01:57:05;;;;;;;7.90;7.37;;;;;;;23.52;81.31;100127.25;5054883;28;20253;-71
2021/06/19 01:59:32;;;;;;;5.10;4.70;;;;;;;23.61;80.50;100131.22;5054934;28;20196;-71
2021/06/19 02:01:59;;;;;;;7.23;6.73;;;;;;;23.79;79.09;100113.59;5054846;28;20560;-72
2021/06/19 02:04:27;;;;;;;6.30;5.90;;;;;;;23.86;78.10;100119.09;5054988;28;20167;-72
2021/06/19 02:06:53;;;;;;;5.90;5.50;;;;;;;23.86;78.51;100107.94;5054715;28;20300;-71
2021/06/19 02:09:19;;;;;;;7.77;7.17;;;;;;;23.90;77.56;100106.72;5054775;28;20198;-71
2021/06/19 02:11:44;;;;;;;5.27;4.97;;;;;;;23.93;76.73;100107.91;5054474;28;20172;-71
2021/06/19 02:14:13;;;;;;;5.47;5.00;;;;;;;23.98;75.35;100099.06;5054583;28;20179;-71
2021/06/19 02:16:39;;;;;;;6.43;6.03;;;;;;;23.99;74.99;100106.25;5054579;28;20211;-71
2021/06/19 02:19:05;;;;;;;7.13;6.63;;;;;;;23.94;75.27;100103.91;5054680;28;20251;-71
2021/06/19 02:21:31;;;;;;;6.33;5.93;;;;;;;23.98;74.70;100096.28;5054622;28;20262;-71
2021/06/19 02:23:56;;;;;;;5.10;4.70;;;;;;;24.04;73.84;100108.59;5054612;28;20634;-71
2021/06/19 02:26:21;;;;;;;5.90;5.40;;;;;;;24.09;73.56;100115.75;5054362;28;20244;-71
2021/06/19 02:28:47;;;;;;;5.93;5.43;;;;;;;24.10;73.30;100118.13;5054432;28;20201;-71
2021/06/19 02:31:12;;;;;;;6.83;6.30;;;;;;;24.06;73.44;100116.56;5054073;28;20306;-71
2021/06/19 02:33:38;;;;;;;6.13;5.63;;;;;;;24.00;73.54;100119.00;5054181;28;20168;-71
2021/06/19 02:36:03;;;;;;;6.07;5.47;;;;;;;24.04;73.15;100114.19;5054142;28;20167;-71
2021/06/19 02:38:29;;;;;;;6.13;5.73;;;;;;;24.07;72.65;100116.16;5054200;28;20225;-71
2021/06/19 02:40:54;;;;;;;5.47;5.07;;;;;;;24.04;72.72;100123.34;5054184;28;20260;-71
2021/06/19 02:43:20;;;;;;;7.77;7.17;;;;;;;24.05;73.24;100124.16;5053957;28;20208;-71
2021/06/19 02:45:47;;;;;;;4.93;4.43;;;;;;;24.07;72.18;100124.53;5053948;28;20177;-71
2021/06/19 02:48:13;;;;;;;6.90;6.17;;;;;;;24.12;72.66;100131.66;5053880;28;20175;-71
2021/06/19 02:50:40;;;;;;;5.80;5.40;;;;;;;24.07;72.71;100140.50;5053652;28;20203;-71
2021/06/19 02:53:07;;;;;;;5.00;4.67;;;;;;;24.05;72.41;100129.72;5053382;28;20175;-71
2021/06/19 02:55:34;;;;;;;6.90;6.30;;;;;;;24.05;71.84;100132.53;5053413;28;20761;-71
2021/06/19 02:58:01;;;;;;;6.50;6.00;;;;;;;24.10;71.36;100139.66;5053267;28;20319;-71
2021/06/19 03:00:26;;;;;;;5.30;4.83;;;;;;;24.14;70.46;100140.41;5053597;28;20718;-71
2021/06/19 03:02:52;;;;;;;5.47;5.07;;;;;;;24.15;71.00;100145.59;5053039;28;20240;-71
2021/06/19 03:05:20;;;;;;;6.80;6.30;;;;;;;24.15;70.63;100142.78;5053267;28;20312;-71
2021/06/19 03:07:46;;;;;;;5.60;5.17;;;;;;;24.10;70.72;100139.66;5053127;28;20197;-71
2021/06/19 03:10:15;;;;;;;6.10;5.50;;;;;;;24.07;71.26;100140.50;5053104;28;20207;-71
2021/06/19 03:12:41;;;;;;;5.83;5.43;;;;;;;24.01;71.07;100142.91;5053210;28;20175;-71
2021/06/19 03:15:09;;;;;;;5.93;5.37;;;;;;;23.99;71.16;100142.53;5053098;28;20170;-71
2021/06/19 03:17:35;;;;;;;4.87;4.57;;;;;;;23.93;71.16;100139.38;5052798;28;20178;-72
2021/06/19 03:20:01;;;;;;;4.70;4.33;;;;;;;23.90;71.32;100142.22;5053319;28;20187;-72
2021/06/19 03:22:27;;;;;;;5.90;5.50;;;;;;;23.92;71.21;100137.81;5053048;28;20250;-71
2021/06/19 03:24:52;;;;;;;7.40;6.70;;;;;;;23.87;71.28;100140.22;5052716;28;20171;-71
2021/06/19 03:27:18;;;;;;;5.70;5.30;;;;;;;23.81;71.96;100139.88;5052632;28;20249;-72
2021/06/19 03:29:44;;;;;;;6.37;5.87;;;;;;;23.74;72.51;100137.94;5052661;28;20630;-71
2021/06/19 03:32:10;;;;;;;6.40;5.90;;;;;;;23.64;73.34;100133.19;5052442;28;20208;-71
2021/06/19 03:34:37;;;;;;;6.20;5.70;;;;;;;23.61;73.95;100130.44;5052883;28;20184;-71
2021/06/19 03:37:04;;;;;;;6.17;5.77;;;;;;;23.49;74.62;100128.88;5052591;28;20210;-71
2021/06/19 03:39:31;;;;;;;5.70;5.30;;;;;;;23.42;74.25;100124.13;5052795;28;20171;-71
2021/06/19 03:41:57;;;;;;;5.63;5.23;;;;;;;23.43;73.71;100122.94;5052580;28;20661;-71
2021/06/19 03:44:24;;;;;;;5.10;4.80;;;;;;;23.42;74.10;100137.25;5052559;28;20175;-71
2021/06/19 03:46:50;;;;;;;5.17;4.27;;;;;;;23.43;73.44;100139.66;5052609;28;20213;-71
2021/06/19 03:49:16;;;;;;;5.70;5.20;;;;;;;23.37;74.16;100148.84;5053426;28;20224;-71
2021/06/19 03:51:42;;;;;;;5.30;5.00;;;;;;;23.33;74.39;100143.31;5052473;28;20175;-71
2021/06/19 03:54:07;;;;;;;5.77;5.37;;;;;;;23.31;74.40;100140.13;5052466;28;20269;-71
2021/06/19 03:56:33;;;;;;;6.23;5.63;;;;;;;23.28;74.71;100140.13;5052871;28;20262;-71
2021/06/19 03:58:58;;;;;;;6.80;5.93;;;;;;;23.28;74.01;100142.91;5052708;28;20506;-71
2021/06/19 04:01:24;;;;;;;5.23;4.73;;;;;;;23.36;72.88;100150.84;5051971;28;20186;-72
2021/06/19 04:03:49;;;;;;;6.07;5.60;;;;;;;23.44;72.79;100155.19;5052230;28;20836;-71
2021/06/19 04:06:15;;;;;;;9.37;5.50;;;;;;;23.39;73.10;100152.03;5052130;28;20173;-71
2021/06/19 04:08:40;;;;;;;5.47;5.17;;;;;;;23.35;73.38;100165.19;5067864;28;20179;-71
2021/06/19 04:11:05;;;;;;;4.80;4.43;;;;;;;23.33;73.10;100157.25;5033952;28;20588;-71
2021/06/19 04:13:31;;;;;;;5.17;4.80;;;;;;;23.28;73.96;100162.41;5051509;28;20254;-71
2021/06/19 04:15:56;;;;;;;4.90;4.50;;;;;;;23.24;73.48;100158.88;5051989;28;20177;-71
2021/06/19 04:18:21;;;;;;;5.90;5.40;;;;;;;23.30;73.49;100162.84;5051853;28;20179;-71
2021/06/19 04:20:47;;;;;;;10.90;6.00;;;;;;;23.33;73.16;100165.59;5052054;28;20266;-71
2021/06/19 04:23:12;;;;;;;7.00;6.40;;;;;;;23.33;74.17;100167.59;5051888;28;20171;-71
2021/06/19 04:25:38;;;;;;;6.67;6.17;;;;;;;23.21;76.02;100166.03;5051831;28;20174;-71
2021/06/19 04:28:03;;;;;;;6.17;5.77;;;;;;;23.04;76.73;100167.69;5051451;28;20178;-71
2021/06/19 04:30:29;;;;;;;7.20;6.50;;;;;;;22.94;77.86;100176.88;5051365;28;20225;-71
2021/06/19 04:32:55;;;;;;;6.53;6.03;;;;;;;22.88;78.87;100181.28;5051443;28;20175;-71
2021/06/19 04:35:23;;;;;;;7.53;6.93;;;;;;;22.77;79.56;100188.81;5051691;28;20237;-71
2021/06/19 04:37:48;;;;;;;8.80;8.10;;;;;;;22.71;80.41;100180.09;5051327;28;20201;-71
2021/06/19 04:42:44;;;;;;;7.30;6.70;;;;;;;22.60;81.47;100186.88;5051234;28;20183;-71
2021/06/19 04:45:11;;;;;;;6.23;5.63;;;;;;;22.62;80.83;100188.06;5052253;28;20202;-71
2021/06/19 04:47:39;;;;;;;7.63;7.13;;;;;;;22.67;81.33;100198.78;5048471;28;20176;-71
2021/06/19 04:50:07;;;;;;;5.67;5.27;;;;;;;22.72;80.86;100197.59;5051235;28;20199;-71
2021/06/19 04:52:34;;;;;;;8.77;8.00;;;;;;;22.75;81.11;100203.16;5051275;28;20278;-71
2021/06/19 04:55:00;;;;;;;5.00;4.60;;;;;;;22.81;80.37;100203.53;5051118;28;20178;-71
2021/06/19 04:57:26;;;;;;;10.23;6.87;;;;;;;22.83;80.94;100198.38;5050899;28;20704;-71
2021/06/19 04:59:52;;;;;;;6.43;5.93;;;;;;;22.85;81.51;100201.56;5050806;28;20175;-71
2021/06/19 05:02:17;;;;;;;6.53;6.03;;;;;;;22.88;81.33;100208.34;5051549;28;20179;-71
2021/06/19 05:04:43;;;;;;;5.23;4.83;;;;;;;22.88;81.56;100219.50;5051524;28;20229;-71
2021/06/19 05:07:09;;;;;;;5.97;5.57;;;;;;;22.87;82.81;100221.47;5051145;28;20278;-71
2021/06/19 05:09:35;;;;;;;9.43;6.00;;;;;;;22.88;82.68;100227.84;5051093;28;20286;-71
2021/06/19 05:12:00;;;;;;;7.07;6.57;;;;;;;22.89;82.81;100235.81;5051317;28;20503;-71
2021/06/19 05:14:26;;;;;;;6.17;5.77;;;;;;;22.92;82.80;100237.78;5049889;28;20225;-72
2021/06/19 05:16:54;;;;;;;6.43;5.93;;;;;;;22.95;82.82;100245.34;5052993;28;20646;-71
2021/06/19 05:19:19;;;;;;;7.00;6.40;;;;;;;22.97;81.59;100242.94;5070923;28;20179;-71
2021/06/19 05:21:45;;;;;;;6.70;6.20;;;;;;;23.02;81.71;100236.19;5070906;28;20182;-72
2021/06/19 05:24:11;;;;;;;6.17;5.77;;;;;;;23.06;81.56;100237.75;5056389;28;20265;-73
2021/06/19 05:26:39;;;;;;;7.13;6.53;;;;;;;23.10;81.10;100232.97;5050678;28;20175;-73
2021/06/19 05:29:05;;;;;;;6.97;6.43;;;;;;;23.17;81.60;100237.75;5050684;28;20175;-73
2021/06/19 05:31:30;;;;;;;6.57;6.07;;;;;;;23.21;80.79;100238.53;5050845;28;20171;-73
2021/06/19 05:33:56;;;;;;;6.87;6.37;;;;;;;23.25;80.08;100244.09;5032901;28;20275;-73
2021/06/19 05:36:21;;;;;;;5.90;5.40;;;;;;;23.28;79.90;100234.91;5032659;28;20172;-73
2021/06/19 05:38:47;;;;;;;6.07;5.57;;;;;;;23.30;80.52;100244.47;5050748;28;20171;-73
2021/06/19 05:41:12;;;;;;;5.07;4.67;;;;;;;23.33;79.64;100242.88;5050568;28;20183;-73
2021/06/19 05:43:38;;;;;;;4.83;4.53;;;;;;;23.36;79.29;100254.00;5050441;28;20224;-73
2021/06/19 05:46:03;;;;;;;6.03;5.53;;;;;;;23.42;79.23;100257.97;5050556;28;20182;-73
2021/06/19 05:48:29;;;;;;;9.73;5.77;;;;;;;23.47;79.22;100258.78;5032242;28;20545;-73
2021/06/19 05:50:54;;;;;;;5.03;4.63;;;;;;;23.55;78.90;100265.91;5050263;28;20199;-73
2021/06/19 05:53:19;;;;;;;5.47;5.07;;;;;;;23.58;78.45;100271.50;5050612;28;20167;-73
2021/06/19 05:55:45;;;;;;;4.43;4.03;;;;;;;23.65;78.58;100267.88;5050594;28;20184;-73
2021/06/19 05:58:10;;;;;;;4.20;3.90;;;;;;;23.69;77.57;100271.44;5032840;28;20171;-73
2021/06/19 06:00:37;;;;;;;5.67;4.53;;;;;;;23.79;77.03;100276.19;5050432;28;20213;-73
2021/06/19 06:03:03;;;;;;;4.77;3.20;;;;;;;23.86;76.09;100275.34;5050576;28;20175;-73
2021/06/19 06:05:28;;;;;;;5.13;4.63;;;;;;;23.86;75.74;100276.16;5050535;28;20488;-74
2021/06/19 06:07:55;;;;;;;4.07;3.77;;;;;;;23.93;75.92;100286.50;5050574;28;20619;-73
2021/06/19 06:10:21;;;;;;;2.93;2.73;;;;;;;23.93;74.89;100281.72;5049505;28;20402;-73
2021/06/19 06:12:46;;;;;;;6.50;4.07;;;;;;;23.91;74.32;100286.13;5053771;28;20756;-73
2021/06/19 06:15:12;;;;;;;3.40;3.10;;;;;;;23.96;74.66;100294.06;5050330;28;20261;-73
2021/06/19 06:17:37;;;;;;;8.10;4.17;;;;;;;23.95;74.28;100296.06;5050224;28;20206;-73
2021/06/19 06:20:04;;;;;;;5.03;3.93;;;;;;;23.91;74.10;100306.44;5050156;28;20178;-73
2021/06/19 06:22:29;;;;;;;5.73;4.63;;;;;;;23.98;75.68;100306.41;5050303;28;20179;-73
2021/06/19 06:24:55;;;;;;;5.47;4.90;;;;;;;24.08;75.94;100310.34;5049909;28;20172;-73
2021/06/19 06:27:20;;;;;;;4.83;3.67;;;;;;;24.12;74.87;100310.31;5049833;28;20180;-74
2021/06/19 06:29:46;;;;;;;5.93;3.80;;;;;;;24.20;73.95;100312.69;5050159;28;20205;-73
2021/06/19 06:32:11;;;;;;;2.70;2.50;;;;;;;24.27;71.91;100317.41;5050118;28;20178;-73
2021/06/19 06:34:36;;;;;;;6.13;3.77;;;;;;;24.30;71.09;100322.22;5050433;28;20568;-73
2021/06/19 06:37:02;;;;;;;3.70;3.40;;;;;;;24.36;71.24;100322.59;5050053;28;20179;-73
2021/06/19 06:39:27;;;;;;;3.87;3.57;;;;;;;24.38;71.36;100318.19;5053892;28;20538;-73
2021/06/19 06:41:54;;;;;;;4.73;3.40;;;;;;;24.46;70.43;100318.97;5053792;28;20665;-73
2021/06/19 06:44:19;;;;;;;3.67;3.30;;;;;;;24.48;70.97;100306.16;5053814;28;20167;-73
2021/06/19 06:46:45;;;;;;;3.53;3.33;;;;;;;24.55;71.34;100316.47;5053562;28;20187;-73
2021/06/19 06:49:10;;;;;;;3.20;2.90;;;;;;;24.65;71.96;100310.03;5054028;28;20179;-73
2021/06/19 06:51:37;;;;;;;2.57;2.37;;;;;;;24.72;70.27;100309.16;5053685;28;20241;-74
2021/06/19 06:54:04;;;;;;;2.87;2.67;;;;;;;24.78;70.66;100310.34;5053794;28;20174;-73
2021/06/19 06:56:29;;;;;;;2.27;2.17;;;;;;;24.82;69.63;100305.50;5035442;28;20183;-73
2021/06/19 06:58:54;;;;;;;2.80;2.60;;;;;;;24.90;69.11;100307.84;5053632;28;20164;-75
2021/06/19 07:01:20;;;;;;;15.67;3.23;;;;;;;24.88;69.57;100307.47;5053224;28;20183;-73
2021/06/19 07:03:45;;;;;;;3.40;3.20;;;;;;;24.80;70.35;100308.72;5053365;28;20217;-73
2021/06/19 07:06:10;;;;;;;3.40;3.10;;;;;;;24.91;71.14;100311.44;5053396;28;20202;-72
2021/06/19 07:08:36;;;;;;;3.00;2.77;;;;;;;25.00;70.46;100314.56;5053351;28;20179;-73
2021/06/19 07:11:01;;;;;;;11.43;3.47;;;;;;;25.05;69.20;100316.91;5053047;28;20206;-73
2021/06/19 07:13:27;;;;;;;2.77;2.57;;;;;;;25.10;69.43;100316.47;5053217;28;20199;-72
2021/06/19 07:15:52;;;;;;;2.33;2.13;;;;;;;25.16;67.44;100314.00;5053539;28;20175;-77
2021/06/19 07:18:18;;;;;;;2.47;2.27;;;;;;;25.26;67.01;100310.31;5053233;28;20262;-71
2021/06/19 07:20:44;;;;;;;2.80;2.60;;;;;;;25.27;66.88;100320.28;5053215;28;20171;-71
2021/06/19 07:23:09;;;;;;;4.33;3.93;;;;;;;25.33;67.71;100315.84;5053173;28;20221;-71
2021/06/19 07:25:34;;;;;;;3.63;3.43;;;;;;;25.40;67.59;100312.97;5053121;28;20175;-72
2021/06/19 07:28:00;;;;;;;2.80;2.60;;;;;;;25.40;65.58;100312.97;5052721;28;20195;-73
2021/06/19 07:30:26;;;;;;;3.07;2.77;;;;;;;25.44;65.48;100312.94;5051942;28;20265;-73
2021/06/19 07:32:53;;;;;;;3.60;3.37;;;;;;;25.45;65.76;100309.72;5052221;28;20187;-73
2021/06/19 07:35:18;;;;;;;2.77;2.60;;;;;;;25.49;65.65;100321.69;5052505;28;20206;-74
2021/06/19 07:37:43;;;;;;;2.20;1.93;;;;;;;25.50;64.74;100312.06;5052261;28;20195;-73
2021/06/19 07:40:09;;;;;;;2.33;2.13;;;;;;;25.59;64.90;100316.38;5052263;28;20228;-73
2021/06/19 07:42:38;;;;;;;2.40;2.20;;;;;;;25.60;65.03;100318.75;5034454;28;20179;-73
2021/06/19 07:45:06;;;;;;;2.60;2.40;;;;;;;25.60;63.91;100313.16;5052267;28;20254;-73
2021/06/19 07:47:31;;;;;;;2.60;2.40;;;;;;;25.60;63.72;100318.75;5052128;28;20172;-73
2021/06/19 07:49:56;;;;;;;2.60;2.50;;;;;;;25.66;64.73;100308.69;5051010;28;20536;-74
2021/06/19 07:52:22;;;;;;;2.63;2.47;;;;;;;25.76;63.66;100315.41;5052113;28;20201;-73
2021/06/19 07:54:48;;;;;;;2.00;1.87;;;;;;;25.72;63.85;100314.66;5052598;28;20207;-73
2021/06/19 07:57:14;;;;;;;2.53;2.33;;;;;;;25.65;64.48;100317.50;5051873;28;20171;-73
2021/06/19 07:59:39;;;;;;;2.80;2.60;;;;;;;25.63;63.60;100309.53;5067295;28;20179;-74
2021/06/19 08:02:06;;;;;;;2.33;2.17;;;;;;;25.65;64.55;100317.50;5051870;28;20229;-73
2021/06/19 08:04:33;;;;;;;2.70;2.50;;;;;;;25.84;64.09;100319.69;5051869;28;20175;-73
2021/06/19 08:06:58;;;;;;;4.27;2.63;;;;;;;25.82;62.50;100332.53;5051700;28;20222;-73
2021/06/19 08:09:23;;;;;;;2.77;2.57;;;;;;;25.78;64.02;100326.97;5052124;28;20576;-73
2021/06/19 08:11:49;;;;;;;2.97;2.73;;;;;;;25.86;64.61;100327.69;5050545;28;20838;-74
2021/06/19 08:14:15;;;;;;;2.73;2.57;;;;;;;25.91;65.69;100332.84;5056231;28;20182;-73
2021/06/19 08:16:46;;;;;;;3.50;2.97;;;;;;;25.88;64.84;100333.66;5038221;28;20289;-73
2021/06/19 08:19:12;;;;;;;3.20;3.00;;;;;;;25.90;65.18;100334.84;5059764;28;20198;-73
2021/06/19 08:21:37;;;;;;;2.53;2.37;;;;;;;25.95;64.25;100331.56;5034772;28;20186;-72
2021/06/19 08:24:03;;;;;;;2.77;2.57;;;;;;;26.01;63.82;100335.47;5051449;28;20187;-72
2021/06/19 08:26:29;;;;;;;2.50;2.30;;;;;;;26.06;64.45;100331.44;5033767;28;20520;-72
2021/06/19 08:28:54;;;;;;;2.17;2.07;;;;;;;26.12;62.43;100340.16;5051661;28;20182;-72
2021/06/19 08:31:19;;;;;;;1.93;1.83;;;;;;;26.00;62.75;100333.91;5051473;28;20560;-72
2021/06/19 08:33:45;;;;;;;2.60;2.40;;;;;;;26.14;62.23;100337.72;5051355;28;20734;-72
2021/06/19 08:36:10;;;;;;;2.43;2.33;;;;;;;26.17;63.62;100328.47;5051179;28;20638;-71
2021/06/19 08:38:35;;;;;;;3.73;2.40;;;;;;;26.23;62.71;100324.81;5051137;28;20183;-72
2021/06/19 08:41:01;;;;;;;1.80;1.53;;;;;;;26.24;62.01;100334.00;5051182;28;20179;-72
2021/06/19 08:43:27;;;;;;;2.13;2.03;;;;;;;26.28;60.01;100329.13;5051193;28;20215;-72
2021/06/19 08:45:54;;;;;;;0.93;0.93;;;;;;;26.33;59.93;100331.47;5031684;28;20172;-71
2021/06/19 08:48:20;;;;;;;1.60;1.50;;;;;;;26.22;59.81;100342.03;5038390;28;20175;-72
2021/06/19 08:50:46;;;;;;;2.07;1.97;;;;;;;26.24;61.01;100339.59;5051005;28;20290;-72
2021/06/19 08:53:12;;;;;;;6.93;2.03;;;;;;;26.27;60.62;100338.75;5031457;28;20735;-72
2021/06/19 08:55:38;;;;;;;2.27;2.17;;;;;;;26.34;60.52;100342.25;5031551;28;20172;-72
2021/06/19 08:58:04;;;;;;;1.40;1.30;;;;;;;26.37;59.49;100337.84;5031414;28;20592;-72
2021/06/19 09:00:30;;;;;;;1.50;1.40;;;;;;;26.46;58.52;100340.91;5031059;28;20208;-72
2021/06/19 09:02:55;;;;;;;1.27;1.23;;;;;;;26.54;57.58;100336.00;5031388;28;20214;-72
2021/06/19 09:05:29;;;;;;;1.43;1.33;;;;;;;26.64;58.01;100344.25;5049140;28;20225;-72
2021/06/19 09:07:58;;;;;;;1.60;1.50;;;;;;;26.74;56.81;100345.28;5050672;28;20189;-72
2021/06/19 09:10:34;;;;;;;0.90;0.90;;;;;;;26.86;56.24;100339.09;5048364;28;20222;-71
2021/06/19 09:13:04;;;;;;;1.53;1.43;;;;;;;27.01;57.11;100342.47;5051304;28;20240;-72
2021/06/19 09:15:42;;;;;;;2.07;1.40;;;;;;;27.09;56.25;100329.94;5051232;28;20169;-72
2021/06/19 09:18:14;;;;;;;1.33;1.10;;;;;;;27.15;55.39;100341.44;5051031;28;20164;-72
2021/06/19 09:20:39;;;;;;;1.17;1.07;;;;;;;27.14;56.53;100343.47;5051014;28;20521;-72
2021/06/19 09:23:07;;;;;;;2.10;2.00;;;;;;;27.14;55.19;100335.06;5066305;28;20175;-72
2021/06/19 09:25:32;;;;;;;1.43;1.30;;;;;;;27.17;54.53;100331.38;5051004;28;20242;-72
2021/06/19 09:27:58;;;;;;;2.57;2.47;;;;;;;27.21;58.67;100334.94;5050746;28;20313;-72
2021/06/19 09:30:24;;;;;;;1.53;1.37;;;;;;;27.22;54.54;100330.13;5051142;28;20195;-72
2021/06/19 09:32:55;;;;;;;1.20;1.20;;;;;;;27.28;52.49;100334.00;5050882;28;20254;-72
2021/06/19 09:35:26;;;;;;;1.33;1.33;;;;;;;27.59;53.92;100326.19;5050795;28;20174;-72
2021/06/19 09:37:55;;;;;;;1.73;1.63;;;;;;;27.59;57.37;100326.19;5050763;28;20191;-72
2021/06/19 09:40:21;;;;;;;1.30;1.20;;;;;;;27.66;60.89;100331.72;5050640;28;20171;-72
2021/06/19 09:42:47;;;;;;;2.10;1.70;;;;;;;27.76;56.10;100327.88;5050619;28;20200;-70
2021/06/19 09:45:24;;;;;;;1.87;1.77;;;;;;;27.71;57.08;100328.41;5050146;28;20168;-71
2021/06/19 09:47:50;;;;;;;1.90;1.80;;;;;;;27.72;57.48;100334.81;5050831;28;20178;-71
2021/06/19 09:50:20;;;;;;;2.80;2.60;;;;;;;27.76;55.86;100325.09;5051753;28;20261;-71
2021/06/19 09:52:46;;;;;;;1.40;1.30;;;;;;;27.77;55.01;100331.50;5050825;28;20179;-73
2021/06/19 09:55:14;;;;;;;2.30;2.20;;;;;;;27.82;56.74;100325.38;5050140;28;20173;-74
2021/06/19 09:57:45;;;;;;;2.23;2.13;;;;;;;27.86;56.09;100320.47;5049786;28;20186;-71
2021/06/19 10:00:13;;;;;;;1.50;1.40;;;;;;;27.88;54.32;100334.09;5049921;28;20186;-71
2021/06/19 10:02:39;;;;;;;1.80;1.70;;;;;;;27.76;54.08;100332.72;5050088;28;20172;-73
2021/06/19 10:05:06;;;;;;;2.27;2.13;;;;;;;27.82;54.53;100326.19;5050011;28;20441;-73
2021/06/19 10:07:33;;;;;;;2.17;2.00;;;;;;;27.91;53.55;100327.59;5049824;28;20175;-73
2021/06/19 10:09:59;;;;;;;1.80;1.70;;;;;;;27.83;53.96;100329.78;5049788;28;20187;-73
2021/06/19 10:12:32;;;;;;;1.40;1.40;;;;;;;27.78;54.01;100333.09;5051718;28;20216;-73
2021/06/19 10:15:05;;;;;;;2.53;1.17;;;;;;;27.69;52.50;100324.44;5054245;28;20167;-73
2021/06/19 10:17:36;;;;;;;1.03;0.90;;;;;;;27.78;51.38;100322.66;5054017;28;20659;-74
2021/06/19 10:20:04;;;;;;;1.07;1.07;;;;;;;27.77;51.40;100321.03;5052922;28;20201;-74
2021/06/19 10:22:34;;;;;;;3.27;1.30;;;;;;;27.79;52.42;100315.81;5054353;28;20186;-73
2021/06/19 10:25:05;;;;;;;1.30;1.20;;;;;;;28.01;53.28;100313.34;5073053;28;20218;-74
2021/06/19 10:27:33;;;;;;;0.83;0.83;;;;;;;28.13;51.66;100309.06;5060277;28;20224;-74
2021/06/19 10:29:59;;;;;;;1.10;1.00;;;;;;;28.28;49.68;100316.00;5052342;28;20241;-73
2021/06/19 10:32:37;;;;;;;3.00;1.10;;;;;;;28.30;48.31;100310.72;5061477;28;20183;-74
2021/06/19 10:35:04;;;;;;;0.83;0.83;;;;;;;28.12;48.82;100302.66;5053285;28;20179;-73
2021/06/19 10:37:30;;;;;;;1.20;1.10;;;;;;;28.30;49.98;100304.31;5051897;28;20505;-74
2021/06/19 10:39:56;;;;;;;0.90;0.90;;;;;;;28.48;46.03;100298.28;5063270;28;20186;-74
2021/06/19 10:42:26;;;;;;;0.63;0.63;;;;;;;28.37;46.63;100290.13;5059332;28;20175;-74
2021/06/19 10:45:02;;;;;;;0.90;0.90;;;;;;;28.34;48.28;100293.78;5033765;28;20237;-73
2021/06/19 10:47:32;;;;;;;1.97;1.00;;;;;;;28.40;47.98;100295.66;5035891;28;20509;-74
2021/06/19 10:50:00;;;;;;;0.90;0.90;;;;;;;28.33;47.26;100301.41;5053677;28;20260;-74
2021/06/19 10:52:38;;;;;;;0.90;0.90;;;;;;;28.28;47.23;100287.09;5035874;28;20178;-73
2021/06/19 10:55:10;;;;;;;0.80;0.80;;;;;;;28.26;47.31;100293.16;5053252;28;20175;-74
2021/06/19 10:57:55;;;;;;;1.10;1.00;;;;;;;28.51;46.46;100289.00;5051081;28;20179;-74
2021/06/19 11:00:27;;;;;;;0.67;0.67;;;;;;;28.51;46.49;100289.00;5051860;28;20179;-74
2021/06/19 11:02:54;;;;;;;1.00;1.00;;;;;;;28.55;46.05;100289.69;5053529;28;20174;-74
2021/06/19 11:05:42;;;;;;;0.77;0.77;;;;;;;28.55;46.20;100290.47;5053478;28;20203;-74
2021/06/19 11:08:08;;;;;;;0.77;0.77;;;;;;;28.63;47.10;100293.88;5057582;28;20639;-73
2021/06/19 11:10:55;;;;;;;1.00;1.00;;;;;;;28.72;46.62;100282.81;5061995;28;20556;-73
2021/06/19 11:13:30;;;;;;;0.67;0.67;;;;;;;28.57;46.01;100282.38;5060249;28;20183;-74
2021/06/19 11:16:06;;;;;;;0.47;0.47;;;;;;;28.61;45.62;100280.28;5053258;28;20178;-74
2021/06/19 11:19:00;;;;;;;1.03;0.80;;;;;;;28.72;46.13;100286.44;5053216;28;20167;-74
2021/06/19 11:21:33;;;;;;;0.60;0.60;;;;;;;28.75;44.84;100287.56;5025595;28;20544;-74
2021/06/19 11:24:05;;;;;;;0.80;0.80;;;;;;;28.68;44.10;100282.13;5053135;28;20648;-74
2021/06/19 11:29:37;;;;;;;0.80;0.80;;;;;;;28.96;44.99;100278.63;5052992;28;20270;-74